Time;durP1;ratioP1;P1;durP2;ratioP2;P2;SDS_P1;SDS_P2;PMS_P1;PMS_P2;Temp;Humidity;BMP_temperature;BMP_pressure;BME280_temperature;BME280_humidity;BME280_pressure;Samples;Min_cycle;Max_cycle;Signal;HPM_P1;HPM_P2
2022/07/24 00:02:13;;;;;;;14.05;9.02;;;;;;;;;;5097990;28;20047;-77
2022/07/24 00:04:39;;;;;;;19.63;9.57;;;;;;;;;;5079513;28;20450;-77
2022/07/24 00:07:05;;;;;;;20.10;9.38;;;;;;;;;;5097984;28;20024;-77
2022/07/24 00:09:31;;;;;;;15.52;8.52;;;;;;;;;;5097726;28;20048;-77
2022/07/24 00:11:58;;;;;;;15.27;9.60;;;;;;;;;;5097985;28;20027;-76
2022/07/24 00:14:24;;;;;;;22.42;9.00;;;;;;;;;;5097918;28;20082;-77
2022/07/24 00:16:50;;;;;;;21.88;9.27;;;;;;;;;;5097737;28;20028;-76
2022/07/24 00:19:17;;;;;;;15.77;9.00;;;;;;;;;;5097554;28;20432;-76
2022/07/24 00:21:43;;;;;;;13.40;9.32;;;;;;;;;;5097597;28;20020;-76
2022/07/24 00:24:09;;;;;;;16.55;9.50;;;;;;;;;;5079215;28;20321;-77
2022/07/24 00:26:35;;;;;;;21.65;9.30;;;;;;;;;;5097857;28;20035;-77
2022/07/24 00:29:01;;;;;;;18.13;9.13;;;;;;;;;;5097024;28;20112;-76
2022/07/24 00:31:27;;;;;;;17.02;9.13;;;;;;;;;;5097227;28;20436;-77
2022/07/24 00:33:53;;;;;;;17.42;8.98;;;;;;;;;;5097515;28;20099;-77
2022/07/24 00:36:19;;;;;;;14.35;9.48;;;;;;;;;;5097360;28;20030;-76
2022/07/24 00:38:45;;;;;;;16.75;9.05;;;;;;;;;;5097469;28;20406;-76
2022/07/24 00:41:11;;;;;;;16.45;9.73;;;;;;;;;;5097318;28;20024;-77
2022/07/24 00:43:56;;;;;;;15.73;9.32;;;;;;;;;;5097428;28;20372;-76
2022/07/24 00:46:22;;;;;;;12.27;9.10;;;;;;;;;;5097355;28;20020;-77
2022/07/24 00:48:48;;;;;;;18.67;9.20;;;;;;;;;;5097315;28;20047;-77
2022/07/24 00:51:14;;;;;;;15.38;8.88;;;;;;;;;;5097506;28;20035;-77
2022/07/24 00:53:40;;;;;;;19.65;9.88;;;;;;;;;;5097389;28;20074;-76
2022/07/24 00:56:06;;;;;;;16.48;9.38;;;;;;;;;;5097246;28;20028;-77
2022/07/24 00:58:32;;;;;;;22.23;9.63;;;;;;;;;;5079094;28;20398;-77
2022/07/24 01:00:58;;;;;;;21.23;10.15;;;;;;;;;;5078916;28;20081;-76
2022/07/24 01:03:24;;;;;;;19.33;9.68;;;;;;;;;;5096923;28;20103;-76
2022/07/24 01:05:50;;;;;;;19.42;10.13;;;;;;;;;;5096970;28;20020;-77
2022/07/24 01:08:17;;;;;;;20.65;10.48;;;;;;;;;;5096761;28;20408;-77
2022/07/24 01:10:43;;;;;;;19.40;9.70;;;;;;;;;;5097261;28;20031;-77
2022/07/24 01:13:09;;;;;;;15.45;9.18;;;;;;;;;;5096944;28;20024;-76
2022/07/24 01:15:35;;;;;;;15.50;9.32;;;;;;;;;;5096883;28;20477;-76
2022/07/24 01:18:02;;;;;;;17.75;9.90;;;;;;;;;;5096996;28;20059;-77
2022/07/24 01:20:28;;;;;;;16.60;10.88;;;;;;;;;;5097116;28;20115;-77
2022/07/24 01:22:54;;;;;;;20.95;10.93;;;;;;;;;;5078761;28;20414;-77
2022/07/24 01:25:21;;;;;;;27.08;10.77;;;;;;;;;;5096938;28;20024;-76
2022/07/24 01:27:47;;;;;;;25.35;11.52;;;;;;;;;;5096857;28;20356;-76
2022/07/24 01:30:13;;;;;;;19.20;11.10;;;;;;;;;;5096727;28;20028;-76
2022/07/24 01:32:39;;;;;;;18.00;11.32;;;;;;;;;;5096797;28;20157;-77
2022/07/24 01:35:05;;;;;;;19.67;10.52;;;;;;;;;;5096695;28;20070;-76
2022/07/24 01:37:31;;;;;;;17.33;10.27;;;;;;;;;;5096726;28;20024;-76
2022/07/24 01:39:57;;;;;;;21.35;10.50;;;;;;;;;;5096856;28;20035;-76
2022/07/24 01:42:25;;;;;;;16.50;9.57;;;;;;;;;;5100040;28;20012;-76
2022/07/24 01:44:51;;;;;;;17.13;10.10;;;;;;;;;;5100671;28;20024;-76
2022/07/24 01:47:17;;;;;;;19.00;10.05;;;;;;;;;;5100565;28;20111;-76
2022/07/24 01:49:43;;;;;;;20.73;9.80;;;;;;;;;;5082621;28;20106;-76
2022/07/24 01:52:16;;;;;;;19.02;9.43;;;;;;;;;;5100562;28;20032;-76
2022/07/24 01:54:42;;;;;;;12.80;8.40;;;;;;;;;;5100717;28;20066;-76
2022/07/24 01:57:08;;;;;;;14.00;9.35;;;;;;;;;;5100566;28;20028;-76
2022/07/24 01:59:34;;;;;;;26.75;9.30;;;;;;;;;;5100383;28;20108;-76
2022/07/24 02:02:01;;;;;;;13.82;8.63;;;;;;;;;;5082471;28;20024;-76
2022/07/24 02:04:27;;;;;;;18.17;10.00;;;;;;;;;;5100174;28;20074;-76
2022/07/24 02:06:53;;;;;;;17.98;8.82;;;;;;;;;;5099964;28;20356;-76
2022/07/24 02:09:19;;;;;;;16.77;8.95;;;;;;;;;;5100105;28;20048;-76
2022/07/24 02:11:45;;;;;;;18.75;9.30;;;;;;;;;;5082193;28;20074;-76
2022/07/24 02:14:11;;;;;;;12.30;8.60;;;;;;;;;;5082094;28;20054;-76
2022/07/24 02:16:37;;;;;;;16.60;10.27;;;;;;;;;;5100095;28;20070;-76
2022/07/24 02:19:03;;;;;;;13.40;8.80;;;;;;;;;;5100072;28;20028;-76
2022/07/24 02:21:29;;;;;;;16.80;9.15;;;;;;;;;;5100175;28;20446;-76
2022/07/24 02:23:55;;;;;;;12.55;8.75;;;;;;;;;;5100015;28;20432;-76
2022/07/24 02:26:21;;;;;;;16.60;8.85;;;;;;;;;;5099893;28;20302;-76
2022/07/24 02:28:47;;;;;;;12.20;8.88;;;;;;;;;;5099765;28;20035;-76
2022/07/24 02:31:14;;;;;;;19.88;8.70;;;;;;;;;;5099829;28;20023;-76
2022/07/24 02:33:40;;;;;;;17.40;8.07;;;;;;;;;;5099438;28;20028;-76
2022/07/24 02:36:06;;;;;;;15.85;8.73;;;;;;;;;;5099938;28;20020;-76
2022/07/24 02:38:32;;;;;;;13.52;8.57;;;;;;;;;;5099526;28;20461;-76
2022/07/24 02:40:58;;;;;;;19.73;8.15;;;;;;;;;;5099719;28;20028;-76
2022/07/24 02:43:24;;;;;;;17.35;8.52;;;;;;;;;;5099405;28;20016;-76
2022/07/24 02:45:50;;;;;;;12.68;9.00;;;;;;;;;;5099433;28;20145;-76
2022/07/24 02:48:16;;;;;;;19.95;9.35;;;;;;;;;;5099516;28;20025;-76
2022/07/24 02:50:43;;;;;;;16.05;8.55;;;;;;;;;;5099431;28;20103;-76
2022/07/24 02:53:09;;;;;;;16.13;9.02;;;;;;;;;;5098766;28;20016;-76
2022/07/24 02:55:35;;;;;;;18.35;8.82;;;;;;;;;;5099598;28;20028;-76
2022/07/24 02:58:04;;;;;;;16.73;9.07;;;;;;;;;;5099260;28;20099;-76
2022/07/24 03:00:30;;;;;;;17.23;8.63;;;;;;;;;;5098909;28;20144;-77
2022/07/24 03:02:56;;;;;;;14.45;9.00;;;;;;;;;;5099315;28;20071;-76
2022/07/24 03:05:22;;;;;;;18.73;8.77;;;;;;;;;;5098934;28;20402;-76
2022/07/24 03:07:48;;;;;;;15.30;8.57;;;;;;;;;;5098936;28;20024;-77
2022/07/24 03:10:15;;;;;;;18.60;9.85;;;;;;;;;;5098816;28;20093;-77
2022/07/24 03:12:41;;;;;;;16.17;9.15;;;;;;;;;;5099075;28;20055;-77
2022/07/24 03:15:07;;;;;;;15.77;9.68;;;;;;;;;;5098819;28;20024;-77
2022/07/24 03:17:33;;;;;;;14.25;9.43;;;;;;;;;;5098590;28;20463;-77
2022/07/24 03:20:00;;;;;;;16.08;9.23;;;;;;;;;;5098687;28;20063;-77
2022/07/24 03:22:26;;;;;;;19.63;9.68;;;;;;;;;;5098773;28;20017;-77
2022/07/24 03:24:52;;;;;;;19.92;9.55;;;;;;;;;;5098879;28;20089;-76
2022/07/24 03:27:18;;;;;;;17.60;9.38;;;;;;;;;;5098805;28;20016;-76
2022/07/24 03:29:44;;;;;;;15.18;9.35;;;;;;;;;;5098651;28;20031;-76
2022/07/24 03:32:10;;;;;;;11.55;9.60;;;;;;;;;;5098786;28;20044;-76
2022/07/24 03:34:38;;;;;;;15.73;9.88;;;;;;;;;;5098528;28;20378;-76
2022/07/24 03:37:04;;;;;;;16.23;10.00;;;;;;;;;;5098463;28;20032;-77
2022/07/24 03:39:30;;;;;;;17.83;10.40;;;;;;;;;;5098601;28;20040;-76
2022/07/24 03:41:57;;;;;;;15.25;10.02;;;;;;;;;;5098646;28;20027;-77
2022/07/24 03:44:23;;;;;;;13.93;9.07;;;;;;;;;;5098382;28;20048;-76
2022/07/24 03:46:49;;;;;;;16.73;9.50;;;;;;;;;;5079984;28;20029;-76
2022/07/24 03:49:15;;;;;;;16.55;9.45;;;;;;;;;;5098148;28;20020;-76
2022/07/24 03:51:41;;;;;;;15.68;9.00;;;;;;;;;;5098303;28;20031;-76
2022/07/24 03:54:07;;;;;;;21.88;8.85;;;;;;;;;;5098174;28;20031;-76
2022/07/24 03:56:33;;;;;;;16.40;8.85;;;;;;;;;;5098324;28;20028;-77
2022/07/24 03:58:59;;;;;;;17.50;8.73;;;;;;;;;;5097962;28;20363;-76
2022/07/24 04:01:25;;;;;;;17.48;8.98;;;;;;;;;;5098579;28;20451;-76
2022/07/24 04:03:51;;;;;;;19.05;9.13;;;;;;;;;;5078957;28;20070;-77
2022/07/24 04:06:17;;;;;;;19.60;9.13;;;;;;;;;;5097874;28;20016;-77
2022/07/24 04:08:43;;;;;;;18.15;8.70;;;;;;;;;;5079391;28;20044;-77
2022/07/24 04:11:09;;;;;;;16.08;9.23;;;;;;;;;;5098018;28;20016;-77
2022/07/24 04:13:35;;;;;;;12.40;8.60;;;;;;;;;;5097928;28;20030;-77
2022/07/24 04:16:01;;;;;;;19.70;8.98;;;;;;;;;;5097901;28;20024;-76
2022/07/24 04:18:28;;;;;;;16.48;8.23;;;;;;;;;;5079407;28;20061;-77
2022/07/24 04:20:54;;;;;;;20.25;8.73;;;;;;;;;;5079610;28;20028;-76
2022/07/24 04:23:20;;;;;;;17.38;8.85;;;;;;;;;;5097187;28;20401;-76
2022/07/24 04:25:46;;;;;;;15.85;8.75;;;;;;;;;;5097619;28;20417;-76
2022/07/24 04:28:13;;;;;;;14.65;8.07;;;;;;;;;;5097841;28;20024;-76
2022/07/24 04:30:39;;;;;;;19.80;8.90;;;;;;;;;;5097630;28;20050;-77
2022/07/24 04:33:05;;;;;;;14.90;7.88;;;;;;;;;;5097653;28;20027;-76
2022/07/24 04:35:31;;;;;;;11.00;7.70;;;;;;;;;;5097520;28;20028;-76
2022/07/24 04:37:57;;;;;;;10.55;7.85;;;;;;;;;;5097294;28;20039;-76
2022/07/24 04:40:23;;;;;;;16.02;8.75;;;;;;;;;;5079310;28;20024;-76
2022/07/24 04:42:49;;;;;;;13.77;8.13;;;;;;;;;;5097721;28;20013;-76
2022/07/24 04:45:15;;;;;;;11.95;7.93;;;;;;;;;;5097243;28;20051;-76
2022/07/24 04:47:41;;;;;;;19.73;8.60;;;;;;;;;;5097393;28;20016;-76
2022/07/24 04:50:08;;;;;;;16.40;8.80;;;;;;;;;;5097180;28;20035;-77
2022/07/24 04:52:34;;;;;;;18.08;8.02;;;;;;;;;;5097209;28;20303;-76
2022/07/24 04:55:00;;;;;;;15.38;7.78;;;;;;;;;;5097124;28;20409;-77
2022/07/24 04:57:26;;;;;;;13.73;8.93;;;;;;;;;;5097143;28;20031;-76
2022/07/24 04:59:52;;;;;;;18.50;7.85;;;;;;;;;;5097058;28;20028;-77
2022/07/24 05:02:18;;;;;;;10.15;8.15;;;;;;;;;;5097270;28;20027;-77
2022/07/24 05:04:44;;;;;;;13.25;7.68;;;;;;;;;;5097087;28;20027;-77
2022/07/24 05:07:10;;;;;;;15.73;7.40;;;;;;;;;;5097033;28;20061;-77
2022/07/24 05:09:36;;;;;;;11.68;7.65;;;;;;;;;;5078440;28;20482;-77
2022/07/24 05:12:02;;;;;;;13.07;7.85;;;;;;;;;;5096855;28;20024;-77
2022/07/24 05:14:28;;;;;;;12.43;7.07;;;;;;;;;;5097198;28;20039;-77
2022/07/24 05:16:54;;;;;;;11.23;7.93;;;;;;;;;;5082887;28;20039;-77
2022/07/24 05:19:20;;;;;;;12.77;7.80;;;;;;;;;;5101081;28;20065;-77
2022/07/24 05:21:46;;;;;;;10.95;7.03;;;;;;;;;;5101089;28;20103;-77
2022/07/24 05:24:12;;;;;;;17.92;7.75;;;;;;;;;;5101351;28;20020;-77
2022/07/24 05:26:38;;;;;;;19.60;8.63;;;;;;;;;;5101165;28;20027;-77
2022/07/24 05:29:08;;;;;;;10.75;7.97;;;;;;;;;;5100890;28;20398;-78
2022/07/24 05:31:34;;;;;;;12.40;7.60;;;;;;;;;;5101109;28;20032;-77
2022/07/24 05:34:02;;;;;;;12.25;7.80;;;;;;;;;;5100959;28;20421;-77
2022/07/24 05:36:28;;;;;;;10.48;7.28;;;;;;;;;;5100840;28;20056;-77
2022/07/24 05:38:54;;;;;;;12.45;7.72;;;;;;;;;;5100946;28;20036;-78
2022/07/24 05:41:20;;;;;;;17.63;8.52;;;;;;;;;;5100986;28;20148;-77
2022/07/24 05:43:46;;;;;;;13.70;7.70;;;;;;;;;;5100705;28;20027;-77
2022/07/24 05:46:12;;;;;;;11.13;7.60;;;;;;;;;;5100605;28;20032;-77
2022/07/24 05:48:38;;;;;;;14.02;7.38;;;;;;;;;;5100574;28;20031;-78
2022/07/24 05:51:04;;;;;;;14.32;7.75;;;;;;;;;;5100665;28;20065;-77
2022/07/24 05:53:31;;;;;;;8.65;7.70;;;;;;;;;;5100726;28;20103;-78
2022/07/24 05:55:57;;;;;;;13.77;8.15;;;;;;;;;;5100647;28;20027;-77
2022/07/24 05:58:23;;;;;;;12.15;7.90;;;;;;;;;;5100496;28;20028;-77
2022/07/24 06:00:49;;;;;;;19.95;8.02;;;;;;;;;;5100536;28;20030;-78
2022/07/24 06:03:15;;;;;;;13.07;7.68;;;;;;;;;;5100511;28;20047;-77
2022/07/24 06:05:41;;;;;;;10.48;7.95;;;;;;;;;;5100376;28;20067;-78
2022/07/24 06:08:08;;;;;;;14.40;8.05;;;;;;;;;;5099964;28;20028;-77
2022/07/24 06:10:34;;;;;;;12.00;7.95;;;;;;;;;;5081909;28;20042;-78
2022/07/24 06:13:00;;;;;;;11.05;7.97;;;;;;;;;;5100441;28;20036;-78
2022/07/24 06:15:26;;;;;;;13.23;8.18;;;;;;;;;;5100077;28;20070;-78
2022/07/24 06:17:52;;;;;;;11.68;7.97;;;;;;;;;;5100100;28;20032;-77
2022/07/24 06:20:18;;;;;;;9.70;8.38;;;;;;;;;;5100110;28;20027;-77
2022/07/24 06:22:45;;;;;;;18.88;8.15;;;;;;;;;;5099903;28;20486;-77
2022/07/24 06:25:11;;;;;;;11.15;8.45;;;;;;;;;;5099676;28;20031;-77
2022/07/24 06:27:44;;;;;;;11.40;7.80;;;;;;;;;;5099375;28;20102;-78
2022/07/24 06:30:14;;;;;;;12.93;8.27;;;;;;;;;;5099773;28;20410;-77
2022/07/24 06:32:40;;;;;;;11.27;8.30;;;;;;;;;;5081494;28;20043;-77
2022/07/24 06:35:07;;;;;;;14.93;8.35;;;;;;;;;;5099805;28;20505;-78
2022/07/24 06:37:33;;;;;;;14.60;8.85;;;;;;;;;;5099612;28;20028;-78
2022/07/24 06:39:59;;;;;;;12.05;8.70;;;;;;;;;;5099548;28;20060;-77
2022/07/24 06:42:25;;;;;;;10.38;8.85;;;;;;;;;;5081712;28;20466;-78
2022/07/24 06:44:51;;;;;;;10.25;8.68;;;;;;;;;;5099566;28;20024;-77
2022/07/24 06:47:17;;;;;;;13.93;8.57;;;;;;;;;;5099682;28;20161;-77
2022/07/24 06:49:43;;;;;;;11.63;9.43;;;;;;;;;;5099479;28;20046;-77
2022/07/24 06:52:09;;;;;;;12.93;8.52;;;;;;;;;;5099380;28;20024;-76
2022/07/24 06:54:35;;;;;;;10.13;9.00;;;;;;;;;;5081041;28;20365;-77
2022/07/24 06:57:01;;;;;;;12.25;9.05;;;;;;;;;;5080800;28;20341;-77
2022/07/24 06:59:27;;;;;;;12.32;9.05;;;;;;;;;;5098886;28;20437;-77
2022/07/24 07:01:53;;;;;;;12.15;9.05;;;;;;;;;;5099350;28;20025;-77
2022/07/24 07:04:22;;;;;;;17.00;9.27;;;;;;;;;;5099140;28;20035;-77
2022/07/24 07:06:48;;;;;;;15.00;9.50;;;;;;;;;;5099074;28;20016;-78
2022/07/24 07:09:14;;;;;;;14.27;9.25;;;;;;;;;;5098797;28;20143;-77
2022/07/24 07:11:40;;;;;;;13.23;8.55;;;;;;;;;;5081160;28;20036;-77
2022/07/24 07:14:06;;;;;;;12.65;8.32;;;;;;;;;;5099162;28;20024;-77
2022/07/24 07:28:16;;;;;;;15.95;8.90;;;;;;;;;;5115167;27;20813;-77
2022/07/24 07:30:42;;;;;;;10.68;8.70;;;;;;;;;;5114518;28;20031;-77
2022/07/24 07:33:08;;;;;;;10.70;9.15;;;;;;;;;;5114711;28;20024;-77
2022/07/24 07:35:34;;;;;;;14.48;9.13;;;;;;;;;;5114506;28;20313;-77
2022/07/24 07:38:00;;;;;;;12.30;8.30;;;;;;;;;;5114596;28;20410;-77
2022/07/24 07:40:26;;;;;;;11.45;8.35;;;;;;;;;;5114482;28;20019;-77
2022/07/24 07:42:52;;;;;;;15.20;9.15;;;;;;;;;;5114663;28;20020;-77
2022/07/24 07:45:18;;;;;;;10.05;8.90;;;;;;;;;;5114644;28;20044;-77
2022/07/24 07:47:45;;;;;;;15.25;8.98;;;;;;;;;;5114391;28;20054;-77
2022/07/24 07:50:14;;;;;;;15.07;10.60;;;;;;;;;;5114575;28;20027;-77
2022/07/24 07:52:40;;;;;;;12.88;10.93;;;;;;;;;;5114136;28;20040;-77
2022/07/24 07:55:06;;;;;;;14.73;9.07;;;;;;;;;;5114220;28;20024;-77
2022/07/24 07:57:32;;;;;;;13.98;8.23;;;;;;;;;;5114061;28;20111;-77
2022/07/24 07:59:58;;;;;;;10.93;8.02;;;;;;;;;;5113979;28;20046;-77
2022/07/24 08:02:24;;;;;;;8.65;7.03;;;;;;;;;;5113921;28;20024;-77
2022/07/24 08:04:50;;;;;;;11.52;7.68;;;;;;;;;;5114226;28;20069;-77
2022/07/24 08:07:16;;;;;;;14.60;7.75;;;;;;;;;;5112894;28;20081;-77
2022/07/24 08:09:43;;;;;;;11.50;7.82;;;;;;;;;;5113967;28;20028;-77
2022/07/24 08:12:09;;;;;;;12.60;7.95;;;;;;;;;;5113696;28;20028;-77
2022/07/24 08:14:35;;;;;;;8.90;6.72;;;;;;;;;;5113905;28;20062;-77
2022/07/24 08:17:01;;;;;;;12.60;7.20;;;;;;;;;;5113674;28;20023;-76
2022/07/24 08:19:27;;;;;;;9.10;6.32;;;;;;;;;;5113664;28;20016;-77
2022/07/24 08:21:53;;;;;;;9.68;8.68;;;;;;;;;;5113963;28;20023;-77
2022/07/24 08:24:20;;;;;;;9.10;7.05;;;;;;;;;;5113421;28;20325;-77
2022/07/24 08:26:50;;;;;;;11.52;7.25;;;;;;;;;;5112491;28;20062;-77
2022/07/24 08:29:16;;;;;;;8.68;7.28;;;;;;;;;;5099880;28;20028;-77
2022/07/24 08:31:42;;;;;;;9.15;6.72;;;;;;;;;;5099852;28;20028;-77
2022/07/24 08:34:09;;;;;;;17.77;13.52;;;;;;;;;;5099978;28;20324;-77
2022/07/24 08:36:35;;;;;;;11.20;10.02;;;;;;;;;;5099877;28;20024;-77
2022/07/24 08:39:02;;;;;;;9.70;8.43;;;;;;;;;;5099767;28;20397;-77
2022/07/24 08:41:35;;;;;;;13.50;5.93;;;;;;;;;;5099819;28;20079;-77
2022/07/24 08:44:01;;;;;;;8.73;6.15;;;;;;;;;;5099728;28;20024;-77
2022/07/24 08:46:28;;;;;;;9.00;6.72;;;;;;;;;;5098671;28;20024;-77
2022/07/24 08:48:54;;;;;;;6.65;5.88;;;;;;;;;;5099785;28;20069;-77
2022/07/24 08:51:20;;;;;;;12.43;6.72;;;;;;;;;;5099675;28;20035;-77
2022/07/24 08:53:47;;;;;;;7.85;6.15;;;;;;;;;;5098905;28;20051;-78
2022/07/24 08:56:13;;;;;;;9.77;6.05;;;;;;;;;;5099921;28;20028;-77
2022/07/24 08:58:40;;;;;;;11.80;6.18;;;;;;;;;;5099454;28;20025;-77
2022/07/24 09:01:07;;;;;;;6.97;5.60;;;;;;;;;;5099289;28;20401;-78
2022/07/24 09:03:44;;;;;;;6.65;5.93;;;;;;;;;;5099476;28;20062;-78
2022/07/24 09:06:10;;;;;;;6.80;5.97;;;;;;;;;;5099388;28;20066;-77
2022/07/24 09:08:37;;;;;;;7.05;6.20;;;;;;;;;;5099328;28;20402;-77
2022/07/24 09:11:03;;;;;;;7.68;6.20;;;;;;;;;;5099229;28;20482;-77
2022/07/24 09:14:29;;;;;;;9.15;5.85;;;;;;;;;;5099386;28;20123;-77
2022/07/24 09:16:22;;;;;;;7.75;5.85;;;;;;;;;;5099130;28;20050;-77
2022/07/24 09:18:50;;;;;;;6.22;5.63;;;;;;;;;;5098959;28;20026;-77
2022/07/24 09:21:17;;;;;;;9.50;6.05;;;;;;;;;;5099040;28;20405;-77
2022/07/24 09:23:44;;;;;;;9.73;6.25;;;;;;;;;;5099082;28;20110;-77
2022/07/24 09:26:10;;;;;;;6.57;5.82;;;;;;;;;;5098838;28;20381;-77
2022/07/24 09:29:08;;;;;;;9.90;5.93;;;;;;;;;;5098856;28;20317;-77
2022/07/24 09:31:49;;;;;;;6.35;5.57;;;;;;;;;;5056599;28;20444;-77
2022/07/24 09:34:15;;;;;;;6.15;5.50;;;;;;;;;;5056740;28;20040;-77
2022/07/24 09:36:41;;;;;;;7.38;5.68;;;;;;;;;;5039931;28;20036;-77
2022/07/24 09:39:07;;;;;;;8.35;6.10;;;;;;;;;;5055946;28;20051;-77
2022/07/24 09:41:50;;;;;;;9.85;6.13;;;;;;;;;;5056454;28;20032;-77
2022/07/24 09:44:16;;;;;;;8.98;6.20;;;;;;;;;;5056475;28;20017;-77
2022/07/24 09:46:46;;;;;;;13.10;5.93;;;;;;;;;;5039765;28;20160;-77
2022/07/24 09:49:19;;;;;;;10.13;6.50;;;;;;;;;;5056520;28;20036;-77
2022/07/24 09:51:45;;;;;;;12.02;6.97;;;;;;;;;;5056397;28;20036;-77
2022/07/24 09:54:12;;;;;;;8.70;6.00;;;;;;;;;;5039719;28;20136;-77
2022/07/24 09:56:38;;;;;;;10.60;7.00;;;;;;;;;;5056150;28;20045;-77
2022/07/24 09:59:07;;;;;;;10.55;7.30;;;;;;;;;;5056286;28;20029;-77
2022/07/24 10:01:34;;;;;;;13.82;7.55;;;;;;;;;;5039474;28;20033;-78
2022/07/24 10:04:01;;;;;;;8.60;7.60;;;;;;;;;;5056163;28;20029;-77
2022/07/24 10:06:27;;;;;;;9.75;7.50;;;;;;;;;;5065729;28;20448;-77
2022/07/24 10:08:53;;;;;;;10.50;6.55;;;;;;;;;;5098314;28;20032;-77
2022/07/24 10:11:20;;;;;;;9.35;7.30;;;;;;;;;;5098052;28;20028;-77
2022/07/24 10:13:46;;;;;;;8.60;7.35;;;;;;;;;;5098293;28;20028;-77
2022/07/24 10:16:13;;;;;;;11.15;7.35;;;;;;;;;;5098064;28;20061;-77
2022/07/24 10:18:52;;;;;;;11.57;7.95;;;;;;;;;;5098035;28;20032;-77
2022/07/24 10:21:26;;;;;;;9.25;7.80;;;;;;;;;;5097713;28;20031;-77
2022/07/24 10:23:58;;;;;;;9.43;7.65;;;;;;;;;;5097592;28;20020;-77
2022/07/24 10:26:43;;;;;;;9.00;7.53;;;;;;;;;;5097731;28;20055;-78
2022/07/24 10:29:19;;;;;;;9.70;7.55;;;;;;;;;;5097967;28;20057;-77
2022/07/24 10:31:47;;;;;;;10.20;7.68;;;;;;;;;;5097701;28;20031;-77
2022/07/24 10:34:24;;;;;;;13.52;8.40;;;;;;;;;;5096738;28;20024;-78
2022/07/24 10:37:10;;;;;;;11.60;7.65;;;;;;;;;;5093612;28;20027;-79
2022/07/24 10:39:45;;;;;;;10.85;7.60;;;;;;;;;;5077248;28;20021;-79
2022/07/24 10:42:11;;;;;;;11.48;7.72;;;;;;;;;;5077206;28;20020;-79
2022/07/24 10:44:37;;;;;;;10.18;7.40;;;;;;;;;;5080782;28;21445;-79
2022/07/24 10:47:08;;;;;;;12.30;7.72;;;;;;;;;;5091416;28;20075;-79
2022/07/24 10:49:41;;;;;;;10.15;6.97;;;;;;;;;;5091134;28;20422;-74
2022/07/24 10:52:09;;;;;;;8.80;7.63;;;;;;;;;;5077201;28;20365;-74
2022/07/24 10:54:35;;;;;;;11.60;7.38;;;;;;;;;;5077235;28;20032;-74
2022/07/24 10:57:01;;;;;;;9.68;7.50;;;;;;;;;;5076997;28;20036;-74
2022/07/24 10:59:34;;;;;;;8.70;7.40;;;;;;;;;;5077211;28;20314;-74
2022/07/24 11:02:24;;;;;;;8.55;7.32;;;;;;;;;;5078004;28;20025;-74
2022/07/24 11:05:10;;;;;;;9.90;7.28;;;;;;;;;;5055752;28;20040;-73
2022/07/24 11:07:36;;;;;;;9.10;7.75;;;;;;;;;;5055240;28;20335;-74
2022/07/24 11:10:07;;;;;;;8.68;7.35;;;;;;;;;;5055024;28;20414;-73
2022/07/24 11:12:33;;;;;;;;;;;;;;;;;;5057166;28;20113;-81
2022/07/24 11:17:48;;;;;;;10.52;8.00;;;;;;;;;;5065757;28;20048;-79
2022/07/24 11:20:15;;;;;;;8.90;7.65;;;;;;;;;;5058940;28;20025;-77
2022/07/24 11:22:49;;;;;;;9.02;8.13;;;;;;;;;;5074809;28;20041;-76
2022/07/24 11:25:18;;;;;;;9.02;7.60;;;;;;;;;;5067379;28;20039;-78
2022/07/24 11:27:48;;;;;;;12.00;7.97;;;;;;;;;;5074752;28;20063;-77
2022/07/24 11:30:15;;;;;;;10.10;7.70;;;;;;;;;;5074264;28;20029;-77
2022/07/24 11:32:41;;;;;;;12.23;7.40;;;;;;;;;;5074049;28;20048;-77
2022/07/24 11:35:08;;;;;;;7.93;7.05;;;;;;;;;;5074793;28;20036;-77
2022/07/24 11:37:38;;;;;;;9.15;7.95;;;;;;;;;;5074736;28;20028;-77
2022/07/24 11:40:06;;;;;;;9.65;7.70;;;;;;;;;;5057606;28;20071;-77
2022/07/24 11:42:32;;;;;;;8.85;6.72;;;;;;;;;;5076532;28;20052;-77
2022/07/24 11:44:58;;;;;;;8.55;7.65;;;;;;;;;;5076447;28;20017;-77
2022/07/24 11:47:26;;;;;;;9.75;7.43;;;;;;;;;;5089543;28;20309;-78
2022/07/24 11:50:01;;;;;;;9.02;6.97;;;;;;;;;;5076604;28;20067;-77
2022/07/24 11:52:32;;;;;;;32.33;8.85;;;;;;;;;;5076845;28;20028;-77
2022/07/24 11:55:05;;;;;;;10.60;7.78;;;;;;;;;;5075474;28;20059;-77
2022/07/24 11:57:32;;;;;;;9.38;7.32;;;;;;;;;;5076388;28;20033;-77
2022/07/24 11:59:58;;;;;;;10.25;7.43;;;;;;;;;;5076477;28;20021;-77
2022/07/24 12:02:24;;;;;;;8.85;7.90;;;;;;;;;;5083783;28;20031;-77
2022/07/24 12:04:51;;;;;;;9.15;7.43;;;;;;;;;;5100539;28;20023;-77
2022/07/24 12:07:20;;;;;;;9.25;7.47;;;;;;;;;;5100513;28;20098;-77
2022/07/24 12:09:47;;;;;;;9.52;7.72;;;;;;;;;;5100383;28;20112;-77
2022/07/24 12:12:23;;;;;;;9.82;7.75;;;;;;;;;;5100606;28;20122;-77
2022/07/24 12:15:06;;;;;;;9.65;8.60;;;;;;;;;;5099523;28;20039;-77
2022/07/24 12:17:36;;;;;;;8.15;7.18;;;;;;;;;;5099612;28;20318;-77
2022/07/24 12:20:06;;;;;;;7.97;7.18;;;;;;;;;;5095969;28;20103;-77
2022/07/24 12:22:32;;;;;;;11.27;6.90;;;;;;;;;;5099222;28;20074;-77
2022/07/24 12:24:59;;;;;;;8.38;7.47;;;;;;;;;;5093248;28;20435;-77
2022/07/24 12:27:39;;;;;;;9.60;7.18;;;;;;;;;;5079574;28;20095;-76
2022/07/24 12:30:17;;;;;;;12.38;8.05;;;;;;;;;;5084307;28;20481;-77
2022/07/24 12:32:53;;;;;;;7.90;7.10;;;;;;;;;;5099152;28;20123;-76
2022/07/24 12:35:19;;;;;;;8.75;7.20;;;;;;;;;;5099748;28;20062;-76
2022/07/24 12:37:45;;;;;;;8.23;6.88;;;;;;;;;;5095334;28;20024;-76
2022/07/24 12:40:22;;;;;;;7.93;7.10;;;;;;;;;;5098149;28;20051;-77
2022/07/24 12:42:55;;;;;;;7.60;6.85;;;;;;;;;;5096588;28;20030;-77
2022/07/24 12:45:21;;;;;;;8.10;6.97;;;;;;;;;;5099492;28;20020;-77
2022/07/24 12:48:06;;;;;;;10.65;7.57;;;;;;;;;;5099223;28;20051;-76
2022/07/24 12:50:32;;;;;;;12.40;7.45;;;;;;;;;;5079527;28;20017;-76
2022/07/24 12:53:08;;;;;;;8.00;6.88;;;;;;;;;;5079475;28;20032;-77
2022/07/24 12:55:35;;;;;;;9.32;7.10;;;;;;;;;;5078494;28;20036;-76
2022/07/24 12:58:02;;;;;;;7.30;6.60;;;;;;;;;;5079475;28;20052;-76
2022/07/24 13:00:28;;;;;;;7.88;7.05;;;;;;;;;;5079240;28;20016;-77
2022/07/24 13:02:54;;;;;;;9.88;7.22;;;;;;;;;;5081644;28;20036;-77
2022/07/24 13:05:39;;;;;;;8.13;6.82;;;;;;;;;;5098349;28;20031;-77
2022/07/24 13:08:05;;;;;;;9.88;7.03;;;;;;;;;;5099285;28;20024;-77
2022/07/24 13:10:31;;;;;;;8.23;7.47;;;;;;;;;;5099413;28;20075;-77
2022/07/24 13:12:57;;;;;;;8.60;7.45;;;;;;;;;;5099304;28;20392;-77
2022/07/24 13:15:23;;;;;;;10.05;6.82;;;;;;;;;;5099184;28;20032;-77
2022/07/24 13:17:49;;;;;;;10.82;7.25;;;;;;;;;;5094355;28;20119;-77
2022/07/24 13:20:15;;;;;;;8.77;7.85;;;;;;;;;;5078866;28;20029;-77
2022/07/24 13:22:41;;;;;;;10.27;8.20;;;;;;;;;;5078836;28;20043;-77
2022/07/24 13:25:07;;;;;;;9.25;7.30;;;;;;;;;;5093486;28;20297;-77
2022/07/24 13:27:33;;;;;;;8.25;6.93;;;;;;;;;;5097971;28;20075;-77
2022/07/24 13:29:59;;;;;;;8.25;7.38;;;;;;;;;;5099186;28;20028;-77
2022/07/24 13:32:25;;;;;;;8.82;7.47;;;;;;;;;;5098934;28;20020;-77
2022/07/24 13:34:51;;;;;;;8.63;7.72;;;;;;;;;;5098584;28;20047;-77
2022/07/24 13:37:18;;;;;;;8.32;7.53;;;;;;;;;;5098629;28;20309;-77
2022/07/24 13:39:44;;;;;;;8.40;7.57;;;;;;;;;;5085753;28;20070;-77
2022/07/24 13:42:10;;;;;;;9.55;7.60;;;;;;;;;;5078599;28;20345;-77
2022/07/24 13:44:37;;;;;;;8.70;7.15;;;;;;;;;;5078427;28;20032;-77
2022/07/24 13:47:03;;;;;;;8.32;7.20;;;;;;;;;;5078365;28;20024;-78
2022/07/24 13:49:29;;;;;;;9.80;6.93;;;;;;;;;;5078346;28;20025;-77
2022/07/24 13:51:55;;;;;;;11.00;7.68;;;;;;;;;;5078319;28;20031;-77
2022/07/24 13:54:21;;;;;;;10.65;7.00;;;;;;;;;;5078105;28;20032;-77
2022/07/24 13:56:48;;;;;;;8.48;7.68;;;;;;;;;;5077116;28;20082;-77
2022/07/24 13:59:14;;;;;;;12.00;8.27;;;;;;;;;;5086404;28;20028;-77
2022/07/24 14:01:40;;;;;;;9.85;8.85;;;;;;;;;;5097355;28;20016;-77
2022/07/24 14:04:08;;;;;;;10.43;7.85;;;;;;;;;;5098442;28;20301;-77
2022/07/24 14:06:35;;;;;;;12.88;8.10;;;;;;;;;;5098169;28;20027;-77
2022/07/24 14:09:02;;;;;;;9.57;7.35;;;;;;;;;;5098172;28;20104;-77
2022/07/24 14:11:28;;;;;;;7.53;6.82;;;;;;;;;;5098128;28;20032;-77
2022/07/24 14:13:54;;;;;;;8.18;6.75;;;;;;;;;;5097894;28;20410;-76
2022/07/24 14:16:21;;;;;;;9.77;7.03;;;;;;;;;;5098074;28;20034;-77
2022/07/24 14:18:47;;;;;;;9.52;7.57;;;;;;;;;;5097646;28;20028;-77
2022/07/24 14:21:13;;;;;;;9.75;6.75;;;;;;;;;;5097952;28;20028;-77
2022/07/24 14:23:39;;;;;;;9.98;6.88;;;;;;;;;;5096140;28;20044;-76
2022/07/24 14:26:05;;;;;;;9.10;7.15;;;;;;;;;;5096882;28;20498;-77
2022/07/24 14:28:31;;;;;;;10.43;7.18;;;;;;;;;;5096797;28;20322;-77
2022/07/24 14:30:57;;;;;;;8.55;7.13;;;;;;;;;;5097932;28;20020;-77
2022/07/24 14:33:23;;;;;;;7.97;7.18;;;;;;;;;;5096922;28;20036;-77
2022/07/24 14:35:50;;;;;;;17.83;8.50;;;;;;;;;;5097578;28;20024;-77
2022/07/24 14:38:16;;;;;;;7.55;6.55;;;;;;;;;;5094842;28;20073;-77
2022/07/24 14:40:42;;;;;;;7.57;6.78;;;;;;;;;;5077581;28;20028;-77
2022/07/24 14:43:08;;;;;;;8.43;7.60;;;;;;;;;;5076625;28;20029;-77
2022/07/24 14:45:34;;;;;;;8.43;6.88;;;;;;;;;;5095568;28;20028;-77
2022/07/24 14:48:00;;;;;;;8.52;7.40;;;;;;;;;;5097511;28;20027;-77
2022/07/24 14:50:26;;;;;;;9.52;7.93;;;;;;;;;;5097611;28;20024;-77